createdAt,value
2022-07-26T00:01:10.236Z,96643.41
2022-07-26T00:05:08.311Z,96653.06
2022-07-26T00:09:05.932Z,96668.94
2022-07-26T00:13:03.266Z,96643.22
2022-07-26T00:17:00.416Z,96666.38
2022-07-26T00:21:40.704Z,96659.91
2022-07-26T00:26:24.830Z,96670.63
2022-07-26T00:30:40.820Z,96659.66
2022-07-26T00:34:37.872Z,96671.41
2022-07-26T00:38:35.157Z,96674.03
2022-07-26T00:42:32.298Z,96662.81
2022-07-26T00:46:29.438Z,96683.34
2022-07-26T00:50:26.594Z,96693.19
2022-07-26T00:54:23.732Z,96666.22
2022-07-26T00:58:20.779Z,96696.63
2022-07-26T01:02:19.024Z,96682.88
2022-07-26T01:06:22.784Z,96679.09
2022-07-26T01:10:23.776Z,96667.53
2022-07-26T01:14:23.608Z,96679.00
2022-07-26T01:18:20.712Z,96670.28
2022-07-26T01:22:17.682Z,96635.28
2022-07-26T01:26:14.633Z,96662.91
2022-07-26T01:30:13.025Z,96685.03
2022-07-26T01:34:10.379Z,96682.50
2022-07-26T01:38:07.697Z,96676.78
2022-07-26T01:42:05.365Z,96691.50
2022-07-26T01:46:03.763Z,96691.19
2022-07-26T01:50:00.826Z,96700.47
2022-07-26T01:53:57.881Z,96665.81
2022-07-26T01:57:57.180Z,96676.94
2022-07-26T02:01:54.287Z,96685.22
2022-07-26T02:05:51.311Z,96682.41
2022-07-26T02:09:49.510Z,96690.53
2022-07-26T02:13:51.263Z,96684.31
2022-07-26T02:17:49.966Z,96700.84
2022-07-26T02:21:46.913Z,96685.25
2022-07-26T02:25:43.973Z,96710.59
2022-07-26T02:29:41.030Z,96692.31
2022-07-26T02:33:38.032Z,96689.91
2022-07-26T02:37:36.613Z,96699.78
2022-07-26T02:41:41.244Z,96716.63
2022-07-26T02:45:39.076Z,96698.97
2022-07-26T02:49:36.073Z,96714.56
2022-07-26T02:53:34.930Z,96678.00
2022-07-26T02:57:35.102Z,96700.22
2022-07-26T03:01:43.426Z,96684.00
2022-07-26T03:05:40.842Z,96665.50
2022-07-26T03:09:37.884Z,96680.50
2022-07-26T03:13:34.920Z,96704.06
2022-07-26T03:17:32.299Z,96682.06
2022-07-26T03:21:29.349Z,96714.72
2022-07-26T03:25:26.470Z,96720.94
2022-07-26T03:29:23.442Z,96739.38
2022-07-26T03:33:20.398Z,96725.34
2022-07-26T03:37:18.547Z,96740.97
2022-07-26T03:41:15.531Z,96708.47
2022-07-26T03:45:13.182Z,96727.00
2022-07-26T03:49:14.649Z,96723.16
2022-07-26T03:53:13.800Z,96734.78
2022-07-26T03:57:10.807Z,96738.63
2022-07-26T04:01:07.842Z,96713.91
2022-07-26T04:05:05.421Z,96717.44
2022-07-26T04:09:03.547Z,96740.03
2022-07-26T04:13:02.316Z,96724.91
2022-07-26T04:16:59.428Z,96741.94
2022-07-26T04:20:56.608Z,96769.34
2022-07-26T04:24:53.660Z,96765.97
2022-07-26T04:28:50.946Z,96740.84
2022-07-26T04:32:47.956Z,96734.91
2022-07-26T04:36:44.935Z,96747.84
2022-07-26T04:40:42.041Z,96764.22
2022-07-26T04:44:40.289Z,96756.41
2022-07-26T04:48:38.341Z,96744.03
2022-07-26T04:52:35.484Z,96753.88
2022-07-26T04:56:32.481Z,96759.78
2022-07-26T05:00:29.564Z,96770.78
2022-07-26T05:04:26.696Z,96765.81
2022-07-26T05:08:23.687Z,96769.00
2022-07-26T05:12:20.668Z,96767.25
2022-07-26T05:16:17.962Z,96757.66
2022-07-26T05:20:17.234Z,96767.13
2022-07-26T05:24:14.374Z,96751.69
2022-07-26T05:28:11.806Z,96761.72
2022-07-26T05:32:09.170Z,96770.22
2022-07-26T05:36:06.648Z,96779.75
2022-07-26T05:40:07.904Z,96756.94
2022-07-26T05:44:05.421Z,96776.03
2022-07-26T05:48:02.783Z,96772.44
2022-07-26T05:52:01.416Z,96784.78
2022-07-26T05:55:58.580Z,96759.63
2022-07-26T05:59:55.596Z,96766.84
2022-07-26T06:03:52.663Z,96732.28
2022-07-26T06:07:49.712Z,96769.03
2022-07-26T06:11:46.931Z,96769.44
2022-07-26T06:15:45.861Z,96759.88
2022-07-26T06:19:47.583Z,96783.59
2022-07-26T06:23:44.962Z,96756.41
2022-07-26T06:27:41.920Z,96777.53
2022-07-26T06:31:38.985Z,96781.00
2022-07-26T06:35:39.263Z,96779.22
2022-07-26T06:39:36.240Z,96781.16
2022-07-26T06:43:33.176Z,96758.06
2022-07-26T06:47:30.236Z,96779.00
2022-07-26T06:51:27.696Z,96782.72
2022-07-26T06:55:24.706Z,96786.69
2022-07-26T06:59:21.656Z,96778.06
2022-07-26T07:03:18.726Z,96779.53
2022-07-26T07:07:15.715Z,96779.78
2022-07-26T07:11:12.702Z,96782.16
2022-07-26T07:15:12.288Z,96778.53
2022-07-26T07:19:09.331Z,96778.13
2022-07-26T07:23:07.175Z,96762.91
2022-07-26T07:27:04.983Z,96755.66
2022-07-26T07:31:03.742Z,96781.22
2022-07-26T07:35:00.927Z,96769.69
2022-07-26T07:38:59.203Z,96758.41
2022-07-26T07:42:59.461Z,96787.03
2022-07-26T07:46:56.547Z,96759.41
2022-07-26T07:50:53.937Z,96756.03
2022-07-26T07:54:50.986Z,96762.53
2022-07-26T07:58:48.116Z,96760.72
2022-07-26T08:02:48.535Z,96773.00
2022-07-26T08:06:50.454Z,96775.22
2022-07-26T08:10:51.966Z,96749.44
2022-07-26T08:14:49.751Z,96761.13
2022-07-26T08:18:57.047Z,96769.88
2022-07-26T08:23:03.720Z,96761.75
2022-07-26T08:27:00.883Z,96759.81
2022-07-26T08:30:57.982Z,96743.28
2022-07-26T08:34:55.042Z,96771.59
2022-07-26T08:39:12.057Z,96786.03
2022-07-26T08:43:11.194Z,96775.03
2022-07-26T08:47:12.414Z,96761.69
2022-07-26T08:51:11.068Z,96770.91
2022-07-26T08:55:09.193Z,96766.00
2022-07-26T08:59:20.262Z,96763.97
2022-07-26T09:03:26.759Z,96761.78
2022-07-26T09:07:23.849Z,96761.16
2022-07-26T09:11:32.608Z,96770.31
2022-07-26T09:15:29.770Z,96780.28
2022-07-26T09:19:27.620Z,96797.34
2022-07-26T09:23:24.605Z,96775.63
2022-07-26T09:27:26.456Z,96790.56
2022-07-26T09:31:25.265Z,96778.31
2022-07-26T09:35:51.399Z,96796.25
2022-07-26T09:40:02.057Z,96777.81
2022-07-26T09:44:04.172Z,96790.53
2022-07-26T09:48:03.061Z,96797.47
2022-07-26T09:52:00.096Z,96775.81
2022-07-26T09:55:57.541Z,96783.81
2022-07-26T09:59:55.360Z,96796.38
2022-07-26T10:03:52.347Z,96782.53
2022-07-26T10:07:51.979Z,96771.06
2022-07-26T10:12:03.332Z,96803.59
2022-07-26T10:16:00.502Z,96806.44
2022-07-26T10:20:04.238Z,96781.72
2022-07-26T10:24:26.682Z,96761.84
2022-07-26T10:28:27.452Z,96771.88
2022-07-26T10:32:24.628Z,96760.69
2022-07-26T10:36:33.518Z,96772.59
2022-07-26T10:40:31.672Z,96766.63
2022-07-26T10:44:45.329Z,96745.50
2022-07-26T10:49:08.729Z,96778.34
2022-07-26T10:53:07.534Z,96766.69
2022-07-26T10:57:04.771Z,96771.97
2022-07-26T11:01:05.130Z,96766.84
2022-07-26T11:05:13.425Z,96749.94
2022-07-26T11:09:12.679Z,96763.47
2022-07-26T11:13:23.878Z,96748.44
2022-07-26T11:17:29.920Z,96749.78
2022-07-26T11:21:27.493Z,96753.13
2022-07-26T11:25:24.514Z,96754.72
2022-07-26T11:29:39.055Z,96766.53
2022-07-26T11:33:45.840Z,96775.91
2022-07-26T11:38:07.857Z,96758.97
2022-07-26T11:42:15.171Z,96761.38
2022-07-26T11:46:12.534Z,96749.69
2022-07-26T11:50:14.363Z,96762.28
2022-07-26T11:54:15.594Z,96734.50
2022-07-26T11:58:12.706Z,96760.94
2022-07-26T12:02:11.378Z,96754.91
2022-07-26T12:06:16.270Z,96754.13
2022-07-26T12:10:16.811Z,96750.47
2022-07-26T12:14:18.341Z,96739.59
2022-07-26T12:18:30.952Z,96741.16
2022-07-26T12:22:27.934Z,96727.34
2022-07-26T12:26:28.701Z,96748.91
2022-07-26T12:30:25.861Z,96749.59
2022-07-26T12:34:28.005Z,96732.44
2022-07-26T12:38:40.765Z,96721.59
2022-07-26T12:42:44.417Z,96735.84
2022-07-26T12:46:41.530Z,96729.16
2022-07-26T12:50:39.013Z,96720.63
2022-07-26T12:54:36.051Z,96719.06
2022-07-26T12:58:33.106Z,96722.00
2022-07-26T13:02:30.140Z,96699.06
2022-07-26T13:06:27.331Z,96730.19
2022-07-26T13:10:34.060Z,96734.38
2022-07-26T13:14:36.936Z,96718.72
2022-07-26T13:18:33.904Z,96727.41
2022-07-26T13:22:30.894Z,96719.72
2022-07-26T13:26:28.202Z,96708.00
2022-07-26T13:30:25.274Z,96712.38
2022-07-26T13:34:23.731Z,96712.34
2022-07-26T13:38:20.794Z,96695.84
2022-07-26T13:42:19.410Z,96717.47
2022-07-26T13:46:16.734Z,96705.72
2022-07-26T13:50:13.741Z,96718.63
2022-07-26T13:54:13.682Z,96721.44
2022-07-26T13:58:11.088Z,96729.59
2022-07-26T14:02:08.379Z,96721.94
2022-07-26T14:06:05.453Z,96719.53
2022-07-26T14:10:02.478Z,96723.09
2022-07-26T14:14:01.926Z,96742.94
2022-07-26T14:17:59.020Z,96714.38
2022-07-26T14:22:00.018Z,96708.47
2022-07-26T14:25:57.505Z,96717.28
2022-07-26T14:29:54.472Z,96721.19
2022-07-26T14:33:51.590Z,96722.38
2022-07-26T14:37:48.612Z,96745.88
2022-07-26T14:41:45.754Z,96749.00
2022-07-26T14:45:42.914Z,96738.97
2022-07-26T14:49:40.086Z,96743.31
2022-07-26T14:53:37.218Z,96742.41
2022-07-26T14:57:34.976Z,96723.84
2022-07-26T15:01:36.767Z,96708.72
2022-07-26T15:05:33.802Z,96721.38
2022-07-26T15:09:30.761Z,96736.75
2022-07-26T15:13:27.888Z,96718.25
2022-07-26T15:17:25.016Z,96728.16
2022-07-26T15:21:22.093Z,96726.53
2022-07-26T15:25:19.078Z,96716.50
2022-07-26T15:29:16.131Z,96710.41
2022-07-26T15:33:14.530Z,96721.84
2022-07-26T15:37:11.781Z,96712.63
2022-07-26T15:41:08.815Z,96725.22
2022-07-26T15:45:09.339Z,96746.44
2022-07-26T15:49:07.614Z,96708.63
2022-07-26T15:53:04.842Z,96728.50
2022-07-26T15:57:01.866Z,96734.00
2022-07-26T16:00:58.885Z,96726.75
2022-07-26T16:04:55.937Z,96737.28
2022-07-26T16:09:15.201Z,96724.34
2022-07-26T16:13:09.906Z,96718.66
2022-07-26T16:17:06.919Z,96707.22
2022-07-26T16:21:04.236Z,96726.88
2022-07-26T16:25:01.326Z,96711.09
2022-07-26T16:28:59.409Z,96719.88
2022-07-26T16:32:56.343Z,96696.41
2022-07-26T16:36:54.281Z,96706.88
2022-07-26T16:40:51.561Z,96703.22
2022-07-26T16:44:49.050Z,96716.69
2022-07-26T16:48:46.164Z,96693.88
2022-07-26T16:52:43.280Z,96706.91
2022-07-26T16:56:40.328Z,96708.81
2022-07-26T17:00:37.512Z,96724.97
2022-07-26T17:04:35.761Z,96721.16
2022-07-26T17:08:32.818Z,96706.53
2022-07-26T17:12:29.834Z,96714.63
2022-07-26T17:16:27.060Z,96693.13
2022-07-26T17:20:24.410Z,96717.13
2022-07-26T17:24:21.544Z,96707.22
2022-07-26T17:28:18.622Z,96705.66
2022-07-26T17:32:15.639Z,96701.66
2022-07-26T17:36:19.826Z,96736.38
2022-07-26T17:40:17.074Z,96709.84
2022-07-26T17:44:14.143Z,96692.00
2022-07-26T17:48:11.206Z,96748.19
2022-07-26T17:52:08.966Z,96744.31
2022-07-26T17:56:06.124Z,96713.97
2022-07-26T18:00:06.945Z,96733.06
2022-07-26T18:04:04.248Z,96732.50
2022-07-26T18:08:01.892Z,96752.03
2022-07-26T18:11:58.965Z,96759.88
2022-07-26T18:15:56.672Z,96745.50
2022-07-26T18:19:53.851Z,96747.28
2022-07-26T18:24:15.214Z,96770.31
2022-07-26T18:28:09.616Z,96747.25
2022-07-26T18:32:06.901Z,96777.84
2022-07-26T18:36:04.312Z,96786.53
2022-07-26T18:40:01.977Z,96759.38
2022-07-26T18:43:59.168Z,96785.16
2022-07-26T18:47:56.216Z,96762.34
2022-07-26T18:51:53.543Z,96794.75
2022-07-26T18:55:51.256Z,96781.84
2022-07-26T18:59:48.282Z,96795.06
2022-07-26T19:03:45.537Z,96762.34
2022-07-26T19:07:43.396Z,96754.38
2022-07-26T19:11:40.370Z,96807.44
2022-07-26T19:15:37.382Z,96801.72
2022-07-26T19:19:34.311Z,96807.78
2022-07-26T19:23:31.365Z,96780.44
2022-07-26T19:27:28.591Z,96800.66
2022-07-26T19:31:25.636Z,96809.72
2022-07-26T19:35:22.732Z,96805.59
2022-07-26T19:39:20.902Z,96831.25
2022-07-26T19:43:17.909Z,96763.59
2022-07-26T19:47:16.040Z,96843.88
2022-07-26T19:51:13.171Z,96847.84
2022-07-26T19:55:10.432Z,96844.75
2022-07-26T19:59:07.714Z,96854.19
2022-07-26T20:03:04.939Z,96850.13
2022-07-26T20:07:02.600Z,96845.88
2022-07-26T20:10:59.594Z,96831.38
2022-07-26T20:14:56.767Z,96851.53
2022-07-26T20:18:54.030Z,96839.66
2022-07-26T20:22:51.054Z,96829.84
2022-07-26T20:26:48.148Z,96859.38
2022-07-26T20:30:48.347Z,96861.16
2022-07-26T20:34:45.753Z,96831.75
2022-07-26T20:38:42.744Z,96864.56
2022-07-26T20:42:41.911Z,96855.00
2022-07-26T20:46:41.867Z,96823.09
2022-07-26T20:50:38.862Z,96873.50
2022-07-26T20:54:35.918Z,96882.81
2022-07-26T20:58:33.190Z,96887.22
2022-07-26T21:02:30.204Z,96880.63
2022-07-26T21:06:29.228Z,96890.31
2022-07-26T21:10:30.031Z,96878.84
2022-07-26T21:14:27.024Z,96865.69
2022-07-26T21:18:25.914Z,96862.91
2022-07-26T21:22:22.892Z,96825.94
2022-07-26T21:26:20.084Z,96878.28
2022-07-26T21:30:17.058Z,96861.13
2022-07-26T21:34:14.458Z,96896.44
2022-07-26T21:38:12.027Z,96886.84
2022-07-26T21:42:09.031Z,96878.44
2022-07-26T21:46:11.888Z,96876.78
2022-07-26T21:50:10.094Z,96887.16
2022-07-26T21:54:07.262Z,96869.38
2022-07-26T21:58:04.295Z,96886.75
2022-07-26T22:02:01.513Z,96890.81
2022-07-26T22:05:59.146Z,96889.69
2022-07-26T22:09:56.121Z,96881.88
2022-07-26T22:13:53.202Z,96918.38
2022-07-26T22:17:50.318Z,96874.38
2022-07-26T22:21:47.272Z,96909.22
2022-07-26T22:25:44.747Z,96910.09
2022-07-26T22:29:41.722Z,96909.84
2022-07-26T22:33:38.773Z,96922.88
2022-07-26T22:37:35.983Z,96919.47
2022-07-26T22:41:38.466Z,96892.81
2022-07-26T22:45:48.706Z,96887.03
2022-07-26T22:49:45.791Z,96919.59
2022-07-26T22:53:42.763Z,96915.19
2022-07-26T22:57:44.704Z,96901.09
2022-07-26T23:01:41.761Z,96921.22
2022-07-26T23:05:46.382Z,96903.22
2022-07-26T23:09:44.743Z,96921.97
2022-07-26T23:13:41.755Z,96908.75
2022-07-26T23:17:39.351Z,96919.50
2022-07-26T23:21:36.403Z,96910.53
2022-07-26T23:25:34.244Z,96895.41
2022-07-26T23:29:31.810Z,96924.91
2022-07-26T23:33:53.534Z,96886.19
2022-07-26T23:37:45.712Z,96880.91
2022-07-26T23:41:42.759Z,96885.84
2022-07-26T23:45:39.721Z,96884.75
2022-07-26T23:49:36.717Z,96888.25
2022-07-26T23:53:33.750Z,96899.47
2022-07-26T23:57:30.698Z,96901.38
